sensor_id;sensor_type;location;lat;lon;timestamp;P1;durP1;ratioP1;P2;durP2;ratioP2
54871;SDS011;43914;57.680;11.982;2023-03-16T00:02:17;7.30;;;1.50;;
54871;SDS011;43914;57.680;11.982;2023-03-16T00:04:43;6.30;;;1.50;;
54871;SDS011;43914;57.680;11.982;2023-03-16T00:07:11;7.50;;;1.40;;
54871;SDS011;43914;57.680;11.982;2023-03-16T00:09:38;4.20;;;1.30;;
54871;SDS011;43914;57.680;11.982;2023-03-16T00:12:16;6.10;;;1.30;;
54871;SDS011;43914;57.680;11.982;2023-03-16T00:14:46;6.90;;;1.40;;
54871;SDS011;43914;57.680;11.982;2023-03-16T00:17:14;6.80;;;1.30;;
54871;SDS011;43914;57.680;11.982;2023-03-16T00:19:50;7.40;;;1.40;;
54871;SDS011;43914;57.680;11.982;2023-03-16T00:22:19;5.70;;;1.20;;
54871;SDS011;43914;57.680;11.982;2023-03-16T00:24:46;5.10;;;1.20;;
54871;SDS011;43914;57.680;11.982;2023-03-16T00:27:13;6.10;;;1.20;;
54871;SDS011;43914;57.680;11.982;2023-03-16T00:29:40;5.30;;;1.40;;
54871;SDS011;43914;57.680;11.982;2023-03-16T00:32:18;5.00;;;1.20;;
54871;SDS011;43914;57.680;11.982;2023-03-16T00:34:45;8.00;;;1.40;;
54871;SDS011;43914;57.680;11.982;2023-03-16T00:37:12;8.70;;;1.60;;
54871;SDS011;43914;57.680;11.982;2023-03-16T00:39:40;6.40;;;1.30;;
54871;SDS011;43914;57.680;11.982;2023-03-16T00:42:07;9.30;;;1.50;;
54871;SDS011;43914;57.680;11.982;2023-03-16T00:44:35;8.50;;;1.40;;
54871;SDS011;43914;57.680;11.982;2023-03-16T00:47:01;4.30;;;1.20;;
54871;SDS011;43914;57.680;11.982;2023-03-16T00:49:28;5.60;;;1.50;;
54871;SDS011;43914;57.680;11.982;2023-03-16T00:51:53;6.70;;;1.70;;
54871;SDS011;43914;57.680;11.982;2023-03-16T00:54:18;6.10;;;1.50;;
54871;SDS011;43914;57.680;11.982;2023-03-16T00:56:46;6.90;;;1.50;;
54871;SDS011;43914;57.680;11.982;2023-03-16T00:59:11;11.50;;;1.60;;
54871;SDS011;43914;57.680;11.982;2023-03-16T01:01:37;6.60;;;1.30;;
54871;SDS011;43914;57.680;11.982;2023-03-16T01:04:03;6.50;;;1.40;;
54871;SDS011;43914;57.680;11.982;2023-03-16T01:06:28;6.70;;;1.60;;
54871;SDS011;43914;57.680;11.982;2023-03-16T01:08:54;6.60;;;1.50;;
54871;SDS011;43914;57.680;11.982;2023-03-16T01:11:21;9.80;;;1.50;;
54871;SDS011;43914;57.680;11.982;2023-03-16T01:13:47;7.10;;;1.40;;
54871;SDS011;43914;57.680;11.982;2023-03-16T01:16:17;6.10;;;1.30;;
54871;SDS011;43914;57.680;11.982;2023-03-16T01:18:43;6.30;;;1.40;;
54871;SDS011;43914;57.680;11.982;2023-03-16T01:21:09;6.60;;;1.60;;
54871;SDS011;43914;57.680;11.982;2023-03-16T01:23:38;6.30;;;1.50;;
54871;SDS011;43914;57.680;11.982;2023-03-16T01:26:04;5.60;;;1.40;;
54871;SDS011;43914;57.680;11.982;2023-03-16T01:28:32;6.80;;;1.30;;
54871;SDS011;43914;57.680;11.982;2023-03-16T01:31:00;6.80;;;1.60;;
54871;SDS011;43914;57.680;11.982;2023-03-16T01:33:31;6.00;;;1.20;;
54871;SDS011;43914;57.680;11.982;2023-03-16T01:36:02;5.40;;;1.40;;
54871;SDS011;43914;57.680;11.982;2023-03-16T01:38:38;5.30;;;1.50;;
54871;SDS011;43914;57.680;11.982;2023-03-16T01:41:04;7.30;;;1.40;;
54871;SDS011;43914;57.680;11.982;2023-03-16T01:43:31;6.60;;;1.20;;
54871;SDS011;43914;57.680;11.982;2023-03-16T01:51:23;5.90;;;1.40;;
54871;SDS011;43914;57.680;11.982;2023-03-16T01:59:27;6.40;;;1.80;;
54871;SDS011;43914;57.680;11.982;2023-03-16T02:01:56;7.70;;;1.50;;
54871;SDS011;43914;57.680;11.982;2023-03-16T02:07:10;5.30;;;1.40;;
54871;SDS011;43914;57.680;11.982;2023-03-16T02:09:41;3.70;;;1.20;;
54871;SDS011;43914;57.680;11.982;2023-03-16T02:12:10;10.10;;;1.90;;
54871;SDS011;43914;57.680;11.982;2023-03-16T02:14:46;4.90;;;1.30;;
54871;SDS011;43914;57.680;11.982;2023-03-16T02:17:13;7.10;;;1.90;;
54871;SDS011;43914;57.680;11.982;2023-03-16T02:22:31;6.90;;;1.60;;
54871;SDS011;43914;57.680;11.982;2023-03-16T02:24:59;5.70;;;1.40;;
54871;SDS011;43914;57.680;11.982;2023-03-16T02:27:28;6.80;;;1.40;;
54871;SDS011;43914;57.680;11.982;2023-03-16T02:30:07;7.40;;;1.60;;
54871;SDS011;43914;57.680;11.982;2023-03-16T02:32:45;6.60;;;1.50;;
54871;SDS011;43914;57.680;11.982;2023-03-16T02:35:13;7.70;;;1.70;;
54871;SDS011;43914;57.680;11.982;2023-03-16T02:37:39;7.30;;;1.60;;
54871;SDS011;43914;57.680;11.982;2023-03-16T02:40:19;6.70;;;1.80;;
54871;SDS011;43914;57.680;11.982;2023-03-16T02:42:48;6.60;;;1.40;;
54871;SDS011;43914;57.680;11.982;2023-03-16T02:45:19;5.40;;;1.60;;
54871;SDS011;43914;57.680;11.982;2023-03-16T02:47:46;6.30;;;1.60;;
54871;SDS011;43914;57.680;11.982;2023-03-16T02:50:15;5.40;;;1.50;;
54871;SDS011;43914;57.680;11.982;2023-03-16T02:52:41;7.40;;;1.60;;
54871;SDS011;43914;57.680;11.982;2023-03-16T02:55:07;7.90;;;1.70;;
54871;SDS011;43914;57.680;11.982;2023-03-16T02:57:33;6.40;;;1.80;;
54871;SDS011;43914;57.680;11.982;2023-03-16T02:59:58;7.60;;;1.70;;
54871;SDS011;43914;57.680;11.982;2023-03-16T03:02:24;5.40;;;1.60;;
54871;SDS011;43914;57.680;11.982;2023-03-16T03:04:49;5.00;;;1.40;;
54871;SDS011;43914;57.680;11.982;2023-03-16T03:07:18;6.80;;;1.70;;
54871;SDS011;43914;57.680;11.982;2023-03-16T03:09:45;7.00;;;1.60;;
54871;SDS011;43914;57.680;11.982;2023-03-16T03:12:11;7.90;;;1.50;;
54871;SDS011;43914;57.680;11.982;2023-03-16T03:14:37;5.60;;;1.60;;
54871;SDS011;43914;57.680;11.982;2023-03-16T03:17:04;5.70;;;1.60;;
54871;SDS011;43914;57.680;11.982;2023-03-16T03:19:35;5.00;;;1.50;;
54871;SDS011;43914;57.680;11.982;2023-03-16T03:22:01;7.20;;;1.70;;
54871;SDS011;43914;57.680;11.982;2023-03-16T03:24:30;7.60;;;1.90;;
54871;SDS011;43914;57.680;11.982;2023-03-16T03:26:57;10.20;;;2.00;;
54871;SDS011;43914;57.680;11.982;2023-03-16T03:29:30;8.50;;;1.80;;
54871;SDS011;43914;57.680;11.982;2023-03-16T03:32:02;6.10;;;1.70;;
54871;SDS011;43914;57.680;11.982;2023-03-16T03:34:29;6.50;;;1.60;;
54871;SDS011;43914;57.680;11.982;2023-03-16T03:36:55;6.40;;;1.50;;
54871;SDS011;43914;57.680;11.982;2023-03-16T03:39:22;7.40;;;1.40;;
54871;SDS011;43914;57.680;11.982;2023-03-16T03:41:48;7.10;;;1.40;;
54871;SDS011;43914;57.680;11.982;2023-03-16T03:44:14;7.50;;;1.40;;
54871;SDS011;43914;57.680;11.982;2023-03-16T03:46:40;7.00;;;1.60;;
54871;SDS011;43914;57.680;11.982;2023-03-16T03:49:05;6.80;;;1.80;;
54871;SDS011;43914;57.680;11.982;2023-03-16T03:51:31;7.90;;;1.70;;
54871;SDS011;43914;57.680;11.982;2023-03-16T03:53:57;6.90;;;1.90;;
54871;SDS011;43914;57.680;11.982;2023-03-16T03:56:23;7.60;;;1.90;;
54871;SDS011;43914;57.680;11.982;2023-03-16T03:58:49;6.90;;;1.80;;
54871;SDS011;43914;57.680;11.982;2023-03-16T04:01:15;6.60;;;1.70;;
54871;SDS011;43914;57.680;11.982;2023-03-16T04:03:41;6.00;;;1.60;;
54871;SDS011;43914;57.680;11.982;2023-03-16T04:06:07;9.50;;;2.00;;
54871;SDS011;43914;57.680;11.982;2023-03-16T04:08:33;7.90;;;1.70;;
54871;SDS011;43914;57.680;11.982;2023-03-16T04:10:59;7.30;;;1.80;;
54871;SDS011;43914;57.680;11.982;2023-03-16T04:13:25;8.20;;;2.00;;
54871;SDS011;43914;57.680;11.982;2023-03-16T04:15:55;6.80;;;1.60;;
54871;SDS011;43914;57.680;11.982;2023-03-16T04:18:25;7.00;;;1.70;;
54871;SDS011;43914;57.680;11.982;2023-03-16T04:20:50;8.10;;;1.80;;
54871;SDS011;43914;57.680;11.982;2023-03-16T04:23:20;5.40;;;1.60;;
54871;SDS011;43914;57.680;11.982;2023-03-16T04:25:46;6.20;;;1.60;;
54871;SDS011;43914;57.680;11.982;2023-03-16T04:28:11;8.90;;;2.30;;
54871;SDS011;43914;57.680;11.982;2023-03-16T04:30:37;8.50;;;1.50;;
54871;SDS011;43914;57.680;11.982;2023-03-16T04:33:02;9.30;;;1.90;;
54871;SDS011;43914;57.680;11.982;2023-03-16T04:35:28;8.70;;;1.80;;
54871;SDS011;43914;57.680;11.982;2023-03-16T04:37:54;5.10;;;1.40;;
54871;SDS011;43914;57.680;11.982;2023-03-16T04:40:19;7.20;;;1.80;;
54871;SDS011;43914;57.680;11.982;2023-03-16T04:42:45;7.60;;;1.80;;
54871;SDS011;43914;57.680;11.982;2023-03-16T04:45:12;8.40;;;1.80;;
54871;SDS011;43914;57.680;11.982;2023-03-16T04:47:39;7.60;;;1.70;;
54871;SDS011;43914;57.680;11.982;2023-03-16T04:50:05;11.10;;;1.80;;
54871;SDS011;43914;57.680;11.982;2023-03-16T04:52:31;5.50;;;1.70;;
54871;SDS011;43914;57.680;11.982;2023-03-16T04:54:57;7.20;;;1.80;;
54871;SDS011;43914;57.680;11.982;2023-03-16T04:57:23;7.50;;;1.80;;
54871;SDS011;43914;57.680;11.982;2023-03-16T04:59:48;7.10;;;1.50;;
54871;SDS011;43914;57.680;11.982;2023-03-16T05:02:14;7.30;;;1.70;;
54871;SDS011;43914;57.680;11.982;2023-03-16T05:04:40;6.10;;;1.50;;
54871;SDS011;43914;57.680;11.982;2023-03-16T05:07:06;8.00;;;1.70;;
54871;SDS011;43914;57.680;11.982;2023-03-16T05:09:32;9.20;;;1.90;;
54871;SDS011;43914;57.680;11.982;2023-03-16T05:11:57;8.10;;;1.60;;
54871;SDS011;43914;57.680;11.982;2023-03-16T05:14:23;7.30;;;1.80;;
54871;SDS011;43914;57.680;11.982;2023-03-16T05:16:48;6.90;;;1.50;;
54871;SDS011;43914;57.680;11.982;2023-03-16T05:19:13;6.90;;;1.80;;
54871;SDS011;43914;57.680;11.982;2023-03-16T05:21:39;4.80;;;1.20;;
54871;SDS011;43914;57.680;11.982;2023-03-16T05:24:05;5.60;;;1.50;;
54871;SDS011;43914;57.680;11.982;2023-03-16T05:26:30;6.00;;;1.50;;
54871;SDS011;43914;57.680;11.982;2023-03-16T05:28:56;7.60;;;1.30;;
54871;SDS011;43914;57.680;11.982;2023-03-16T05:31:22;5.30;;;1.30;;
54871;SDS011;43914;57.680;11.982;2023-03-16T05:33:51;6.80;;;1.40;;
54871;SDS011;43914;57.680;11.982;2023-03-16T05:36:18;5.10;;;1.30;;
54871;SDS011;43914;57.680;11.982;2023-03-16T05:38:44;6.70;;;1.50;;
54871;SDS011;43914;57.680;11.982;2023-03-16T05:41:10;6.10;;;1.20;;
54871;SDS011;43914;57.680;11.982;2023-03-16T05:43:36;6.80;;;1.30;;
54871;SDS011;43914;57.680;11.982;2023-03-16T05:46:02;6.40;;;1.60;;
54871;SDS011;43914;57.680;11.982;2023-03-16T05:48:28;6.60;;;1.50;;
54871;SDS011;43914;57.680;11.982;2023-03-16T05:50:53;4.70;;;1.30;;
54871;SDS011;43914;57.680;11.982;2023-03-16T05:53:19;4.30;;;1.40;;
54871;SDS011;43914;57.680;11.982;2023-03-16T05:55:52;6.10;;;1.50;;
54871;SDS011;43914;57.680;11.982;2023-03-16T05:58:18;7.00;;;1.60;;
54871;SDS011;43914;57.680;11.982;2023-03-16T06:00:45;3.70;;;1.20;;
54871;SDS011;43914;57.680;11.982;2023-03-16T06:03:10;6.90;;;1.50;;
54871;SDS011;43914;57.680;11.982;2023-03-16T06:05:37;5.50;;;1.30;;
54871;SDS011;43914;57.680;11.982;2023-03-16T06:08:02;4.50;;;1.40;;
54871;SDS011;43914;57.680;11.982;2023-03-16T06:10:28;6.70;;;1.50;;
54871;SDS011;43914;57.680;11.982;2023-03-16T06:12:53;4.50;;;1.50;;
54871;SDS011;43914;57.680;11.982;2023-03-16T06:15:19;5.20;;;1.50;;
54871;SDS011;43914;57.680;11.982;2023-03-16T06:17:44;4.30;;;1.10;;
54871;SDS011;43914;57.680;11.982;2023-03-16T06:20:10;5.50;;;1.40;;
54871;SDS011;43914;57.680;11.982;2023-03-16T06:22:38;6.10;;;1.10;;
54871;SDS011;43914;57.680;11.982;2023-03-16T06:25:05;7.70;;;1.20;;
54871;SDS011;43914;57.680;11.982;2023-03-16T06:27:34;4.50;;;1.20;;
54871;SDS011;43914;57.680;11.982;2023-03-16T06:30:00;8.60;;;1.40;;
54871;SDS011;43914;57.680;11.982;2023-03-16T06:32:26;6.70;;;1.50;;
54871;SDS011;43914;57.680;11.982;2023-03-16T06:34:51;6.20;;;1.50;;
54871;SDS011;43914;57.680;11.982;2023-03-16T06:37:17;5.90;;;1.40;;
54871;SDS011;43914;57.680;11.982;2023-03-16T06:39:42;10.40;;;1.40;;
54871;SDS011;43914;57.680;11.982;2023-03-16T06:42:08;5.20;;;1.30;;
54871;SDS011;43914;57.680;11.982;2023-03-16T06:44:35;9.40;;;1.30;;
54871;SDS011;43914;57.680;11.982;2023-03-16T06:47:01;5.10;;;1.50;;
54871;SDS011;43914;57.680;11.982;2023-03-16T06:49:28;4.80;;;1.30;;
54871;SDS011;43914;57.680;11.982;2023-03-16T06:51:54;8.00;;;1.60;;
54871;SDS011;43914;57.680;11.982;2023-03-16T06:54:20;5.00;;;1.40;;
54871;SDS011;43914;57.680;11.982;2023-03-16T06:56:46;6.20;;;1.70;;
54871;SDS011;43914;57.680;11.982;2023-03-16T06:59:11;4.80;;;1.30;;
54871;SDS011;43914;57.680;11.982;2023-03-16T07:01:37;6.40;;;1.30;;
54871;SDS011;43914;57.680;11.982;2023-03-16T07:04:02;6.70;;;1.50;;
54871;SDS011;43914;57.680;11.982;2023-03-16T07:06:28;5.80;;;1.40;;
54871;SDS011;43914;57.680;11.982;2023-03-16T07:08:53;5.30;;;1.60;;
54871;SDS011;43914;57.680;11.982;2023-03-16T07:11:19;6.80;;;1.50;;
54871;SDS011;43914;57.680;11.982;2023-03-16T07:13:44;5.90;;;1.70;;
54871;SDS011;43914;57.680;11.982;2023-03-16T07:16:09;6.90;;;1.60;;
54871;SDS011;43914;57.680;11.982;2023-03-16T07:18:35;7.60;;;1.50;;
54871;SDS011;43914;57.680;11.982;2023-03-16T07:21:02;6.60;;;1.50;;
54871;SDS011;43914;57.680;11.982;2023-03-16T07:23:28;5.30;;;1.30;;
54871;SDS011;43914;57.680;11.982;2023-03-16T07:25:53;5.90;;;1.70;;
54871;SDS011;43914;57.680;11.982;2023-03-16T07:28:19;6.50;;;1.40;;
54871;SDS011;43914;57.680;11.982;2023-03-16T07:30:45;9.30;;;1.80;;
54871;SDS011;43914;57.680;11.982;2023-03-16T07:33:11;5.90;;;1.30;;
54871;SDS011;43914;57.680;11.982;2023-03-16T07:35:37;8.40;;;1.70;;
54871;SDS011;43914;57.680;11.982;2023-03-16T07:38:03;8.70;;;1.60;;
54871;SDS011;43914;57.680;11.982;2023-03-16T07:40:28;8.00;;;1.80;;
54871;SDS011;43914;57.680;11.982;2023-03-16T07:42:55;5.80;;;1.40;;
54871;SDS011;43914;57.680;11.982;2023-03-16T07:45:20;5.80;;;1.50;;
54871;SDS011;43914;57.680;11.982;2023-03-16T07:47:46;9.80;;;1.70;;
54871;SDS011;43914;57.680;11.982;2023-03-16T07:50:11;6.00;;;1.60;;
54871;SDS011;43914;57.680;11.982;2023-03-16T07:52:41;5.70;;;1.50;;
54871;SDS011;43914;57.680;11.982;2023-03-16T07:55:10;9.70;;;1.70;;
54871;SDS011;43914;57.680;11.982;2023-03-16T07:57:36;6.00;;;1.30;;
54871;SDS011;43914;57.680;11.982;2023-03-16T08:00:03;7.30;;;1.50;;
54871;SDS011;43914;57.680;11.982;2023-03-16T08:02:31;9.20;;;1.60;;
54871;SDS011;43914;57.680;11.982;2023-03-16T08:04:56;6.40;;;1.30;;
54871;SDS011;43914;57.680;11.982;2023-03-16T08:07:22;6.10;;;1.40;;
54871;SDS011;43914;57.680;11.982;2023-03-16T08:09:47;6.00;;;1.40;;
54871;SDS011;43914;57.680;11.982;2023-03-16T08:12:13;5.10;;;1.30;;
54871;SDS011;43914;57.680;11.982;2023-03-16T08:14:38;7.70;;;1.50;;
54871;SDS011;43914;57.680;11.982;2023-03-16T08:17:04;7.70;;;1.40;;
54871;SDS011;43914;57.680;11.982;2023-03-16T08:19:31;6.70;;;1.60;;
54871;SDS011;43914;57.680;11.982;2023-03-16T08:21:57;6.60;;;1.50;;
54871;SDS011;43914;57.680;11.982;2023-03-16T08:24:25;10.90;;;2.10;;
54871;SDS011;43914;57.680;11.982;2023-03-16T08:26:53;14.10;;;1.90;;
54871;SDS011;43914;57.680;11.982;2023-03-16T08:29:21;8.70;;;1.50;;
54871;SDS011;43914;57.680;11.982;2023-03-16T08:31:46;5.50;;;1.30;;
54871;SDS011;43914;57.680;11.982;2023-03-16T08:34:12;8.20;;;1.70;;
54871;SDS011;43914;57.680;11.982;2023-03-16T08:36:37;6.40;;;1.40;;
54871;SDS011;43914;57.680;11.982;2023-03-16T08:39:03;7.60;;;1.50;;
54871;SDS011;43914;57.680;11.982;2023-03-16T08:41:32;7.50;;;1.70;;
54871;SDS011;43914;57.680;11.982;2023-03-16T08:43:58;8.00;;;1.60;;
54871;SDS011;43914;57.680;11.982;2023-03-16T08:46:24;10.60;;;1.80;;
54871;SDS011;43914;57.680;11.982;2023-03-16T08:48:50;9.80;;;1.70;;
54871;SDS011;43914;57.680;11.982;2023-03-16T08:51:16;8.70;;;1.50;;
54871;SDS011;43914;57.680;11.982;2023-03-16T08:53:43;8.50;;;1.40;;
54871;SDS011;43914;57.680;11.982;2023-03-16T08:56:10;12.00;;;1.80;;
54871;SDS011;43914;57.680;11.982;2023-03-16T08:58:38;7.70;;;1.50;;
54871;SDS011;43914;57.680;11.982;2023-03-16T09:01:09;5.60;;;1.40;;
54871;SDS011;43914;57.680;11.982;2023-03-16T09:03:37;8.90;;;1.50;;
54871;SDS011;43914;57.680;11.982;2023-03-16T09:06:05;10.90;;;1.70;;
54871;SDS011;43914;57.680;11.982;2023-03-16T09:08:35;6.30;;;1.30;;
54871;SDS011;43914;57.680;11.982;2023-03-16T09:11:04;7.50;;;1.40;;
54871;SDS011;43914;57.680;11.982;2023-03-16T09:13:32;8.20;;;1.40;;
54871;SDS011;43914;57.680;11.982;2023-03-16T09:15:59;10.00;;;1.60;;
54871;SDS011;43914;57.680;11.982;2023-03-16T09:18:24;10.20;;;1.90;;
54871;SDS011;43914;57.680;11.982;2023-03-16T09:20:51;9.50;;;1.80;;
54871;SDS011;43914;57.680;11.982;2023-03-16T09:23:17;15.90;;;2.10;;
54871;SDS011;43914;57.680;11.982;2023-03-16T09:25:43;6.20;;;1.40;;
54871;SDS011;43914;57.680;11.982;2023-03-16T09:28:10;8.80;;;2.00;;
54871;SDS011;43914;57.680;11.982;2023-03-16T09:30:36;7.50;;;1.50;;
54871;SDS011;43914;57.680;11.982;2023-03-16T09:33:02;5.00;;;1.10;;
54871;SDS011;43914;57.680;11.982;2023-03-16T09:35:28;7.10;;;1.60;;
54871;SDS011;43914;57.680;11.982;2023-03-16T09:37:54;8.70;;;1.60;;
54871;SDS011;43914;57.680;11.982;2023-03-16T09:40:25;6.20;;;1.40;;
54871;SDS011;43914;57.680;11.982;2023-03-16T09:43:09;7.80;;;1.60;;
54871;SDS011;43914;57.680;11.982;2023-03-16T09:48:12;9.00;;;1.70;;
54871;SDS011;43914;57.680;11.982;2023-03-16T09:50:41;11.70;;;1.70;;
54871;SDS011;43914;57.680;11.982;2023-03-16T09:55:35;12.20;;;1.70;;
54871;SDS011;43914;57.680;11.982;2023-03-16T09:58:10;9.10;;;1.70;;
54871;SDS011;43914;57.680;11.982;2023-03-16T10:01:06;5.40;;;1.30;;
54871;SDS011;43914;57.680;11.982;2023-03-16T10:04:07;8.10;;;1.50;;
54871;SDS011;43914;57.680;11.982;2023-03-16T10:06:53;5.50;;;1.40;;
54871;SDS011;43914;57.680;11.982;2023-03-16T10:11:59;5.70;;;1.30;;
54871;SDS011;43914;57.680;11.982;2023-03-16T10:14:33;8.40;;;1.40;;
54871;SDS011;43914;57.680;11.982;2023-03-16T10:17:16;9.50;;;1.40;;
54871;SDS011;43914;57.680;11.982;2023-03-16T10:19:42;9.40;;;1.40;;
54871;SDS011;43914;57.680;11.982;2023-03-16T10:22:19;9.20;;;1.90;;
54871;SDS011;43914;57.680;11.982;2023-03-16T10:27:37;9.70;;;1.50;;
54871;SDS011;43914;57.680;11.982;2023-03-16T10:30:23;5.80;;;1.50;;
54871;SDS011;43914;57.680;11.982;2023-03-16T10:33:11;6.00;;;1.20;;
54871;SDS011;43914;57.680;11.982;2023-03-16T10:35:45;9.30;;;1.40;;
54871;SDS011;43914;57.680;11.982;2023-03-16T10:41:17;6.00;;;1.40;;
54871;SDS011;43914;57.680;11.982;2023-03-16T10:43:50;6.50;;;1.20;;
54871;SDS011;43914;57.680;11.982;2023-03-16T10:46:16;8.20;;;1.40;;
54871;SDS011;43914;57.680;11.982;2023-03-16T10:48:56;5.50;;;1.20;;
54871;SDS011;43914;57.680;11.982;2023-03-16T10:51:27;6.50;;;1.20;;
54871;SDS011;43914;57.680;11.982;2023-03-16T10:54:38;6.50;;;1.50;;
54871;SDS011;43914;57.680;11.982;2023-03-16T10:56:49;8.20;;;1.30;;
54871;SDS011;43914;57.680;11.982;2023-03-16T10:59:26;5.60;;;1.10;;
54871;SDS011;43914;57.680;11.982;2023-03-16T11:01:57;5.80;;;1.10;;
54871;SDS011;43914;57.680;11.982;2023-03-16T11:04:29;5.40;;;1.10;;
54871;SDS011;43914;57.680;11.982;2023-03-16T11:06:56;10.90;;;1.60;;
54871;SDS011;43914;57.680;11.982;2023-03-16T11:09:26;10.50;;;2.20;;
54871;SDS011;43914;57.680;11.982;2023-03-16T11:14:26;6.80;;;1.30;;
54871;SDS011;43914;57.680;11.982;2023-03-16T11:17:06;9.20;;;1.50;;
54871;SDS011;43914;57.680;11.982;2023-03-16T11:22:19;5.80;;;1.40;;
54871;SDS011;43914;57.680;11.982;2023-03-16T11:24:52;7.20;;;1.50;;
54871;SDS011;43914;57.680;11.982;2023-03-16T11:27:45;7.40;;;1.30;;
54871;SDS011;43914;57.680;11.982;2023-03-16T11:30:18;6.70;;;1.30;;
54871;SDS011;43914;57.680;11.982;2023-03-16T11:32:53;7.90;;;1.60;;
54871;SDS011;43914;57.680;11.982;2023-03-16T11:35:33;8.50;;;2.00;;
54871;SDS011;43914;57.680;11.982;2023-03-16T11:38:15;8.70;;;1.30;;
54871;SDS011;43914;57.680;11.982;2023-03-16T12:05:55;6.70;;;1.90;;
54871;SDS011;43914;57.680;11.982;2023-03-16T12:11:24;6.50;;;1.60;;
54871;SDS011;43914;57.680;11.982;2023-03-16T12:14:15;7.00;;;1.50;;
54871;SDS011;43914;57.680;11.982;2023-03-16T12:17:08;7.90;;;1.30;;
54871;SDS011;43914;57.680;11.982;2023-03-16T12:22:52;8.10;;;1.30;;
54871;SDS011;43914;57.680;11.982;2023-03-16T12:25:33;6.20;;;1.50;;
54871;SDS011;43914;57.680;11.982;2023-03-16T12:28:04;8.00;;;1.50;;
54871;SDS011;43914;57.680;11.982;2023-03-16T12:44:55;6.10;;;1.00;;
54871;SDS011;43914;57.680;11.982;2023-03-16T12:47:37;10.40;;;1.30;;
54871;SDS011;43914;57.680;11.982;2023-03-16T12:50:11;8.00;;;1.10;;
54871;SDS011;43914;57.680;11.982;2023-03-16T12:52:44;5.20;;;1.20;;
54871;SDS011;43914;57.680;11.982;2023-03-16T12:55:14;8.00;;;1.30;;
54871;SDS011;43914;57.680;11.982;2023-03-16T12:58:04;6.80;;;1.10;;
54871;SDS011;43914;57.680;11.982;2023-03-16T13:00:36;5.90;;;1.20;;
54871;SDS011;43914;57.680;11.982;2023-03-16T13:03:05;7.50;;;1.50;;
54871;SDS011;43914;57.680;11.982;2023-03-16T13:05:43;9.60;;;1.20;;
54871;SDS011;43914;57.680;11.982;2023-03-16T13:08:14;7.80;;;1.40;;
54871;SDS011;43914;57.680;11.982;2023-03-16T13:10:43;6.40;;;1.30;;
54871;SDS011;43914;57.680;11.982;2023-03-16T13:13:30;6.90;;;1.20;;
54871;SDS011;43914;57.680;11.982;2023-03-16T13:16:06;6.60;;;1.20;;
54871;SDS011;43914;57.680;11.982;2023-03-16T13:18:41;5.60;;;1.00;;
54871;SDS011;43914;57.680;11.982;2023-03-16T13:21:17;5.10;;;1.00;;
54871;SDS011;43914;57.680;11.982;2023-03-16T13:26:45;6.50;;;1.10;;
54871;SDS011;43914;57.680;11.982;2023-03-16T13:31:48;6.80;;;1.00;;
54871;SDS011;43914;57.680;11.982;2023-03-16T13:34:20;4.80;;;1.00;;
54871;SDS011;43914;57.680;11.982;2023-03-16T13:36:46;5.90;;;0.90;;
54871;SDS011;43914;57.680;11.982;2023-03-16T13:39:18;5.10;;;0.80;;
54871;SDS011;43914;57.680;11.982;2023-03-16T13:44:51;4.90;;;0.80;;
54871;SDS011;43914;57.680;11.982;2023-03-16T13:47:19;7.40;;;1.00;;
54871;SDS011;43914;57.680;11.982;2023-03-16T13:49:46;5.70;;;0.90;;
54871;SDS011;43914;57.680;11.982;2023-03-16T13:52:30;4.70;;;1.10;;
54871;SDS011;43914;57.680;11.982;2023-03-16T13:54:59;4.90;;;0.90;;
54871;SDS011;43914;57.680;11.982;2023-03-16T13:57:28;4.50;;;0.90;;
54871;SDS011;43914;57.680;11.982;2023-03-16T14:00:00;6.00;;;1.00;;
54871;SDS011;43914;57.680;11.982;2023-03-16T14:02:40;4.20;;;0.90;;
54871;SDS011;43914;57.680;11.982;2023-03-16T14:05:08;6.10;;;1.00;;
54871;SDS011;43914;57.680;11.982;2023-03-16T14:07:45;5.70;;;1.10;;
54871;SDS011;43914;57.680;11.982;2023-03-16T14:10:12;8.90;;;1.30;;
54871;SDS011;43914;57.680;11.982;2023-03-16T14:12:50;4.30;;;0.90;;
54871;SDS011;43914;57.680;11.982;2023-03-16T14:15:26;5.60;;;1.10;;
54871;SDS011;43914;57.680;11.982;2023-03-16T14:17:54;6.00;;;1.10;;
54871;SDS011;43914;57.680;11.982;2023-03-16T14:20:50;6.40;;;1.00;;
54871;SDS011;43914;57.680;11.982;2023-03-16T14:23:18;6.60;;;0.90;;
54871;SDS011;43914;57.680;11.982;2023-03-16T14:25:49;2.90;;;0.90;;
54871;SDS011;43914;57.680;11.982;2023-03-16T14:28:18;2.70;;;0.80;;
54871;SDS011;43914;57.680;11.982;2023-03-16T14:30:53;8.20;;;1.30;;
54871;SDS011;43914;57.680;11.982;2023-03-16T14:33:30;4.60;;;0.90;;
54871;SDS011;43914;57.680;11.982;2023-03-16T14:35:58;4.70;;;1.00;;
54871;SDS011;43914;57.680;11.982;2023-03-16T14:38:35;8.20;;;1.10;;
54871;SDS011;43914;57.680;11.982;2023-03-16T14:41:43;4.20;;;0.80;;
54871;SDS011;43914;57.680;11.982;2023-03-16T14:43:53;4.90;;;0.90;;
54871;SDS011;43914;57.680;11.982;2023-03-16T14:46:39;4.40;;;0.90;;
54871;SDS011;43914;57.680;11.982;2023-03-16T14:49:17;3.50;;;1.00;;
54871;SDS011;43914;57.680;11.982;2023-03-16T14:51:45;5.40;;;1.00;;
54871;SDS011;43914;57.680;11.982;2023-03-16T14:54:13;7.80;;;1.10;;
54871;SDS011;43914;57.680;11.982;2023-03-16T14:56:41;8.10;;;0.90;;
54871;SDS011;43914;57.680;11.982;2023-03-16T14:59:08;6.30;;;1.30;;
54871;SDS011;43914;57.680;11.982;2023-03-16T15:01:34;4.90;;;0.80;;
54871;SDS011;43914;57.680;11.982;2023-03-16T15:04:01;6.30;;;1.10;;
54871;SDS011;43914;57.680;11.982;2023-03-16T15:06:30;5.30;;;1.00;;
54871;SDS011;43914;57.680;11.982;2023-03-16T15:08:56;7.60;;;1.00;;
54871;SDS011;43914;57.680;11.982;2023-03-16T15:11:23;3.50;;;1.00;;
54871;SDS011;43914;57.680;11.982;2023-03-16T15:13:50;5.00;;;1.00;;
54871;SDS011;43914;57.680;11.982;2023-03-16T15:16:17;6.50;;;1.10;;
54871;SDS011;43914;57.680;11.982;2023-03-16T15:18:44;4.10;;;1.00;;
54871;SDS011;43914;57.680;11.982;2023-03-16T15:23:53;5.70;;;1.10;;
54871;SDS011;43914;57.680;11.982;2023-03-16T15:26:23;6.30;;;1.20;;
54871;SDS011;43914;57.680;11.982;2023-03-16T15:28:53;8.30;;;1.10;;
54871;SDS011;43914;57.680;11.982;2023-03-16T15:31:19;6.70;;;1.30;;
54871;SDS011;43914;57.680;11.982;2023-03-16T15:33:45;4.10;;;1.00;;
54871;SDS011;43914;57.680;11.982;2023-03-16T15:36:14;4.60;;;1.00;;
54871;SDS011;43914;57.680;11.982;2023-03-16T15:38:45;6.70;;;1.30;;
54871;SDS011;43914;57.680;11.982;2023-03-16T15:41:13;7.10;;;1.10;;
54871;SDS011;43914;57.680;11.982;2023-03-16T15:43:40;5.50;;;1.20;;
54871;SDS011;43914;57.680;11.982;2023-03-16T15:46:06;7.50;;;1.10;;
54871;SDS011;43914;57.680;11.982;2023-03-16T15:48:32;3.80;;;0.90;;
54871;SDS011;43914;57.680;11.982;2023-03-16T15:51:02;4.50;;;1.00;;
54871;SDS011;43914;57.680;11.982;2023-03-16T15:53:34;6.80;;;1.00;;
54871;SDS011;43914;57.680;11.982;2023-03-16T15:56:14;3.90;;;1.00;;
54871;SDS011;43914;57.680;11.982;2023-03-16T15:58:43;6.30;;;1.00;;
54871;SDS011;43914;57.680;11.982;2023-03-16T16:01:20;4.60;;;0.90;;
54871;SDS011;43914;57.680;11.982;2023-03-16T16:03:50;5.60;;;1.10;;
54871;SDS011;43914;57.680;11.982;2023-03-16T16:06:18;3.40;;;0.90;;
54871;SDS011;43914;57.680;11.982;2023-03-16T16:08:44;3.00;;;0.90;;
54871;SDS011;43914;57.680;11.982;2023-03-16T16:11:16;2.10;;;0.60;;
54871;SDS011;43914;57.680;11.982;2023-03-16T16:13:46;3.20;;;0.80;;
54871;SDS011;43914;57.680;11.982;2023-03-16T16:16:13;3.50;;;0.90;;
54871;SDS011;43914;57.680;11.982;2023-03-16T16:18:42;4.60;;;1.00;;